createdAt,value
2023-07-20T00:00:54.708Z,17.90
2023-07-20T00:04:18.705Z,17.80
2023-07-20T00:07:42.679Z,17.70
2023-07-20T00:11:08.133Z,17.60
2023-07-20T00:14:32.874Z,17.60
2023-07-20T00:17:56.739Z,17.50
2023-07-20T00:21:20.953Z,17.50
2023-07-20T00:24:44.738Z,17.50
2023-07-20T00:28:10.232Z,17.50
2023-07-20T00:31:36.054Z,17.50
2023-07-20T00:35:00.242Z,17.40
2023-07-20T00:38:24.814Z,17.50
2023-07-20T00:41:48.797Z,17.50
2023-07-20T00:45:14.155Z,17.40
2023-07-20T00:48:38.006Z,17.40
2023-07-20T00:52:03.138Z,17.30
2023-07-20T00:55:28.646Z,17.30
2023-07-20T00:58:54.060Z,17.30
2023-07-20T01:02:20.170Z,17.30
2023-07-20T01:05:53.449Z,17.40
2023-07-20T01:09:25.757Z,17.30
2023-07-20T01:12:51.391Z,17.30
2023-07-20T01:16:15.958Z,17.20
2023-07-20T01:19:41.283Z,17.10
2023-07-20T01:23:30.607Z,17.00
2023-07-20T01:27:27.794Z,17.00
2023-07-20T01:31:00.209Z,17.00
2023-07-20T01:34:27.632Z,16.90
2023-07-20T01:37:52.803Z,16.80
2023-07-20T01:41:17.333Z,16.80
2023-07-20T01:44:41.844Z,16.90
2023-07-20T01:48:06.543Z,16.90
2023-07-20T01:51:32.286Z,16.90
2023-07-20T01:54:57.980Z,17.00
2023-07-20T01:58:21.879Z,17.00
2023-07-20T02:01:45.914Z,17.00
2023-07-20T02:05:10.094Z,17.00
2023-07-20T02:08:35.286Z,16.90
2023-07-20T02:11:59.895Z,16.90
2023-07-20T02:15:24.484Z,16.90
2023-07-20T02:18:49.915Z,16.90
2023-07-20T02:22:13.963Z,16.90
2023-07-20T02:25:39.306Z,16.80
2023-07-20T02:29:05.720Z,16.80
2023-07-20T02:32:30.510Z,16.80
2023-07-20T02:35:54.900Z,16.80
2023-07-20T02:39:21.015Z,16.80
2023-07-20T02:42:46.290Z,16.80
2023-07-20T02:46:09.985Z,16.80
2023-07-20T02:49:34.132Z,16.80
2023-07-20T02:52:57.886Z,16.80
2023-07-20T02:56:22.155Z,16.70
2023-07-20T02:59:47.736Z,16.80
2023-07-20T03:03:11.990Z,16.80
2023-07-20T03:06:37.287Z,16.70
2023-07-20T03:10:02.011Z,16.70
2023-07-20T03:13:26.216Z,16.60
2023-07-20T03:16:52.292Z,16.60
2023-07-20T03:20:16.144Z,16.60
2023-07-20T03:23:40.050Z,16.70
2023-07-20T03:27:04.199Z,16.70
2023-07-20T03:30:29.027Z,16.80
2023-07-20T03:34:04.142Z,16.80
2023-07-20T03:37:29.200Z,16.80
2023-07-20T03:40:53.102Z,16.80
2023-07-20T03:44:19.794Z,16.80
2023-07-20T03:47:43.421Z,16.80
2023-07-20T03:51:09.532Z,16.60
2023-07-20T03:54:33.225Z,16.30
2023-07-20T03:57:59.692Z,15.90
2023-07-20T04:01:25.558Z,15.70
2023-07-20T04:04:50.031Z,15.60
2023-07-20T04:08:15.405Z,15.50
2023-07-20T04:11:39.422Z,15.30
2023-07-20T04:15:04.229Z,15.20
2023-07-20T04:18:29.084Z,15.10
2023-07-20T04:21:53.002Z,15.10
2023-07-20T04:25:20.714Z,15.00
2023-07-20T04:28:45.019Z,15.00
2023-07-20T04:32:18.245Z,15.20
2023-07-20T04:35:53.517Z,15.30
2023-07-20T04:39:30.491Z,15.40
2023-07-20T04:42:59.214Z,15.50
2023-07-20T04:46:23.440Z,15.50
2023-07-20T04:49:48.098Z,15.40
2023-07-20T04:53:12.300Z,15.40
2023-07-20T04:56:37.274Z,15.30
2023-07-20T05:00:07.897Z,15.20
2023-07-20T05:03:32.269Z,15.20
2023-07-20T05:06:57.020Z,15.20
2023-07-20T05:10:21.209Z,15.10
2023-07-20T05:13:45.064Z,15.20
2023-07-20T05:17:11.747Z,15.30
2023-07-20T05:20:36.781Z,15.30
2023-07-20T05:24:01.067Z,15.50
2023-07-20T05:27:26.182Z,15.60
2023-07-20T05:30:52.899Z,15.80
2023-07-20T05:34:18.343Z,15.80
2023-07-20T05:37:42.135Z,15.90
2023-07-20T05:41:06.143Z,16.00
2023-07-20T05:44:30.151Z,16.00
2023-07-20T05:47:54.221Z,15.90
2023-07-20T05:51:20.091Z,16.00
2023-07-20T05:54:46.102Z,16.00
2023-07-20T05:58:10.198Z,15.90
2023-07-20T06:01:36.095Z,15.90
2023-07-20T06:05:00.176Z,16.00
2023-07-20T06:08:25.545Z,16.10
2023-07-20T06:11:49.379Z,16.10
2023-07-20T06:15:27.834Z,16.20
2023-07-20T06:18:52.153Z,17.00
2023-07-20T06:22:18.320Z,18.20
2023-07-20T06:25:43.261Z,18.20
2023-07-20T06:29:08.747Z,18.10
2023-07-20T06:32:33.552Z,18.40
2023-07-20T06:35:59.078Z,18.80
2023-07-20T06:46:23.393Z,20.00
2023-07-20T06:49:48.462Z,19.90
2023-07-20T06:53:12.301Z,19.50
2023-07-20T06:56:38.107Z,19.40
2023-07-20T07:00:05.082Z,20.30
2023-07-20T07:03:30.370Z,21.50
2023-07-20T07:06:54.652Z,22.90
2023-07-20T07:10:19.569Z,22.80
2023-07-20T07:13:44.227Z,22.90
2023-07-20T07:17:11.446Z,22.50
2023-07-20T07:20:35.169Z,20.90
2023-07-20T07:24:01.593Z,19.70
2023-07-20T07:27:25.257Z,20.20
2023-07-20T07:30:52.068Z,20.10
2023-07-20T07:34:17.239Z,19.50
2023-07-20T07:37:52.180Z,19.70
2023-07-20T07:41:24.686Z,21.60
2023-07-20T07:44:48.504Z,22.80
2023-07-20T07:48:13.568Z,24.20
2023-07-20T07:51:38.888Z,24.70
2023-07-20T07:55:02.531Z,26.20
2023-07-20T07:58:26.316Z,27.10
2023-07-20T08:01:50.133Z,28.00
2023-07-20T08:05:14.127Z,27.40
2023-07-20T08:08:39.385Z,28.00
2023-07-20T08:12:02.980Z,28.60
2023-07-20T08:15:26.510Z,29.10
2023-07-20T08:18:50.398Z,29.30
2023-07-20T08:22:14.261Z,27.80
2023-07-20T08:25:42.559Z,26.20
2023-07-20T08:29:06.244Z,26.90
2023-07-20T08:32:30.058Z,25.90
2023-07-20T08:35:54.116Z,24.80
2023-07-20T08:39:17.929Z,23.90
2023-07-20T08:42:44.317Z,23.70
2023-07-20T08:46:08.448Z,24.80
2023-07-20T08:49:33.461Z,26.30
2023-07-20T08:52:59.755Z,27.30
2023-07-20T08:56:25.285Z,28.40
2023-07-20T08:59:52.364Z,29.90
2023-07-20T09:03:17.133Z,30.30
2023-07-20T09:06:45.346Z,29.00
2023-07-20T09:10:11.515Z,26.90
2023-07-20T09:13:35.712Z,26.00
2023-07-20T09:17:00.691Z,27.20
2023-07-20T09:20:24.341Z,29.30
2023-07-20T09:23:49.687Z,30.90
2023-07-20T09:27:13.608Z,32.10
2023-07-20T09:30:39.395Z,32.70
2023-07-20T09:34:04.749Z,31.00
2023-07-20T09:37:28.716Z,28.70
2023-07-20T09:40:57.319Z,27.70
2023-07-20T09:48:35.147Z,30.10
2023-07-20T09:51:33.676Z,29.90
2023-07-20T09:54:58.347Z,27.80
2023-07-20T09:58:22.111Z,25.80
2023-07-20T10:01:47.685Z,26.30
2023-07-20T10:05:13.909Z,29.00
2023-07-20T10:12:17.401Z,30.40
2023-07-20T10:15:49.496Z,29.90
2023-07-20T10:19:25.712Z,30.40
2023-07-20T10:22:50.949Z,32.10
2023-07-20T10:26:16.524Z,33.40
2023-07-20T10:29:41.383Z,33.10
2023-07-20T10:33:06.332Z,31.10
2023-07-20T10:36:32.260Z,28.90
2023-07-20T10:39:57.997Z,28.90
2023-07-20T10:43:23.318Z,30.40
2023-07-20T10:46:48.628Z,30.60
2023-07-20T10:50:14.206Z,30.20
2023-07-20T10:53:37.830Z,28.90
2023-07-20T10:57:25.181Z,27.70
2023-07-20T11:01:06.660Z,26.60
2023-07-20T11:04:41.572Z,26.30
2023-07-20T11:08:07.479Z,26.10
2023-07-20T11:11:33.038Z,25.60
2023-07-20T11:14:58.722Z,25.00
2023-07-20T11:18:23.654Z,24.70
2023-07-20T11:22:00.856Z,24.80
2023-07-20T11:25:27.385Z,24.00
2023-07-20T11:28:52.864Z,23.80
2023-07-20T11:32:23.168Z,23.70
2023-07-20T11:35:48.753Z,23.50
2023-07-20T11:39:13.264Z,23.30
2023-07-20T11:46:05.195Z,22.70
2023-07-20T11:49:29.254Z,22.60
2023-07-20T11:52:54.340Z,22.70
2023-07-20T11:56:17.982Z,22.90
2023-07-20T11:59:55.809Z,23.10
2023-07-20T12:03:21.192Z,23.30
2023-07-20T12:06:44.853Z,23.50
2023-07-20T12:10:12.716Z,23.70
2023-07-20T12:13:40.856Z,23.60
2023-07-20T12:17:04.623Z,23.60
2023-07-20T12:20:30.086Z,23.50
2023-07-20T12:23:53.692Z,23.80
2023-07-20T12:27:19.284Z,23.90
2023-07-20T12:30:45.201Z,23.70
2023-07-20T12:34:10.411Z,23.70
2023-07-20T12:37:34.053Z,24.00
2023-07-20T12:40:57.652Z,24.20
2023-07-20T12:44:22.629Z,24.20
2023-07-20T12:47:46.280Z,24.20
2023-07-20T12:51:10.255Z,24.00
2023-07-20T12:54:33.912Z,24.10
2023-07-20T12:57:57.837Z,24.00
2023-07-20T13:01:22.816Z,23.80
2023-07-20T13:04:46.442Z,23.70
2023-07-20T13:11:36.755Z,24.00
2023-07-20T13:15:01.768Z,24.30
2023-07-20T13:18:26.841Z,24.50
2023-07-20T13:21:50.660Z,24.40
2023-07-20T13:25:14.288Z,24.40
2023-07-20T13:28:38.024Z,24.40
2023-07-20T13:32:02.075Z,24.40
2023-07-20T13:38:50.715Z,23.90
2023-07-20T13:42:14.378Z,24.00
2023-07-20T13:45:39.796Z,24.10
2023-07-20T13:49:22.827Z,24.10
2023-07-20T13:52:48.154Z,23.90
2023-07-20T13:59:38.387Z,24.00
2023-07-20T14:06:31.484Z,24.60
2023-07-20T14:13:34.163Z,25.10
2023-07-20T14:17:06.437Z,25.00
2023-07-20T14:20:30.073Z,24.80
2023-07-20T14:23:54.593Z,24.80
2023-07-20T14:27:19.727Z,24.70
2023-07-20T14:30:43.618Z,24.60
2023-07-20T14:34:07.203Z,24.40
2023-07-20T14:37:30.885Z,23.70
2023-07-20T14:40:54.488Z,22.80
2023-07-20T14:44:22.059Z,22.40
2023-07-20T14:47:46.398Z,22.00
2023-07-20T14:51:10.090Z,21.80
2023-07-20T14:54:33.662Z,21.60
2023-07-20T14:57:57.331Z,21.40
2023-07-20T15:01:22.366Z,21.60
2023-07-20T15:04:50.101Z,21.70
2023-07-20T15:08:13.903Z,21.50
2023-07-20T15:11:38.296Z,21.60
2023-07-20T15:15:07.803Z,21.80
2023-07-20T15:18:45.996Z,21.80
2023-07-20T15:22:11.702Z,22.00
2023-07-20T15:25:36.081Z,22.20
2023-07-20T15:29:00.570Z,22.50
2023-07-20T15:32:24.247Z,23.00
2023-07-20T15:35:49.226Z,23.30
2023-07-20T15:39:12.780Z,23.10
2023-07-20T15:42:38.612Z,22.70
2023-07-20T15:46:20.546Z,22.60
2023-07-20T15:49:46.902Z,22.60
2023-07-20T15:53:11.981Z,22.70
2023-07-20T15:56:35.580Z,22.90
2023-07-20T16:00:01.020Z,22.90
2023-07-20T16:03:38.330Z,22.70
2023-07-20T16:07:02.351Z,22.60
2023-07-20T16:10:29.206Z,22.50
2023-07-20T16:13:54.048Z,22.70
2023-07-20T16:17:18.152Z,22.70
2023-07-20T16:20:42.167Z,22.70
2023-07-20T16:24:06.594Z,22.70
2023-07-20T16:27:31.606Z,22.90
2023-07-20T16:30:55.356Z,22.90
2023-07-20T16:34:19.030Z,22.50
2023-07-20T16:37:42.707Z,22.00
2023-07-20T16:41:09.778Z,21.70
2023-07-20T16:44:35.130Z,21.80
2023-07-20T16:47:58.932Z,21.70
2023-07-20T16:51:23.425Z,21.60
2023-07-20T16:54:47.630Z,21.70
2023-07-20T16:58:13.464Z,21.70
2023-07-20T17:01:38.616Z,21.70
2023-07-20T17:05:02.187Z,21.60
2023-07-20T17:08:28.896Z,21.50
2023-07-20T17:11:52.537Z,21.50
2023-07-20T17:15:17.262Z,21.50
2023-07-20T17:18:44.681Z,21.60
2023-07-20T17:22:08.316Z,21.70
2023-07-20T17:25:32.304Z,21.70
2023-07-20T17:28:56.424Z,21.70
2023-07-20T17:32:20.675Z,21.60
2023-07-20T17:35:46.429Z,21.70
2023-07-20T17:39:09.978Z,21.70
2023-07-20T17:49:26.597Z,21.20
2023-07-20T17:52:51.777Z,21.10
2023-07-20T17:56:16.127Z,21.10
2023-07-20T18:00:38.279Z,21.00
2023-07-20T18:03:25.765Z,20.90
2023-07-20T18:06:50.369Z,20.80
2023-07-20T18:10:15.575Z,20.60
2023-07-20T18:13:39.267Z,20.50
2023-07-20T18:17:02.962Z,20.50
2023-07-20T18:20:26.668Z,20.40
2023-07-20T18:23:52.199Z,20.40
2023-07-20T18:27:17.769Z,20.40
2023-07-20T18:30:41.672Z,20.40
2023-07-20T18:34:05.398Z,20.50
2023-07-20T18:37:29.024Z,20.50
2023-07-20T18:40:53.212Z,20.40
2023-07-20T18:44:18.184Z,20.40
2023-07-20T18:47:45.088Z,20.40
2023-07-20T18:51:08.875Z,20.30
2023-07-20T18:54:32.684Z,20.20
2023-07-20T18:57:56.269Z,20.20
2023-07-20T19:01:21.430Z,20.10
2023-07-20T19:04:45.277Z,20.00
2023-07-20T19:08:08.859Z,19.90
2023-07-20T19:14:58.928Z,19.70
2023-07-20T19:18:23.947Z,19.60
2023-07-20T19:21:47.523Z,19.50
2023-07-20T19:25:12.333Z,19.50
2023-07-20T19:28:36.707Z,19.50
2023-07-20T19:32:00.351Z,19.40
2023-07-20T19:35:25.304Z,19.40
2023-07-20T19:38:49.429Z,19.40
2023-07-20T19:42:13.032Z,19.40
2023-07-20T19:45:36.621Z,19.40
2023-07-20T19:49:00.800Z,19.50
2023-07-20T19:52:25.845Z,19.50
2023-07-20T19:55:49.447Z,19.40
2023-07-20T19:59:14.110Z,19.30
2023-07-20T20:06:04.253Z,19.20
2023-07-20T20:09:29.297Z,19.00
2023-07-20T20:12:52.841Z,18.90
2023-07-20T20:16:16.396Z,18.80
2023-07-20T20:19:39.963Z,18.80
2023-07-20T20:23:03.892Z,18.80
2023-07-20T20:26:28.855Z,18.80
2023-07-20T20:29:54.073Z,18.80
2023-07-20T20:33:20.571Z,18.80
2023-07-20T20:36:45.899Z,18.80
2023-07-20T20:40:10.521Z,18.80
2023-07-20T20:43:35.540Z,18.80
2023-07-20T20:47:03.233Z,18.90
2023-07-20T20:50:26.947Z,18.90
2023-07-20T20:53:50.569Z,18.90
2023-07-20T20:57:14.424Z,18.90
2023-07-20T21:00:39.389Z,18.90
2023-07-20T21:04:03.190Z,18.80
2023-07-20T21:07:27.040Z,18.80
2023-07-20T21:10:52.796Z,18.80
2023-07-20T21:14:16.401Z,18.80
2023-07-20T21:17:41.380Z,18.80
2023-07-20T21:21:05.663Z,18.70
2023-07-20T21:24:29.602Z,18.60
2023-07-20T21:27:53.221Z,18.60
2023-07-20T21:31:16.923Z,18.60
2023-07-20T21:34:42.480Z,18.60
2023-07-20T21:38:06.221Z,18.60
2023-07-20T21:41:29.819Z,18.60
2023-07-20T21:44:53.502Z,18.60
2023-07-20T21:48:17.130Z,18.60
2023-07-20T21:51:42.054Z,18.60
2023-07-20T21:55:06.564Z,18.60
2023-07-20T21:58:30.179Z,18.60
2023-07-20T22:02:00.398Z,18.50
2023-07-20T22:05:24.370Z,18.40
2023-07-20T22:08:49.569Z,18.40
2023-07-20T22:12:13.760Z,18.40
2023-07-20T22:15:39.715Z,18.40
2023-07-20T22:19:03.737Z,18.40
2023-07-20T22:22:27.513Z,18.30
2023-07-20T22:25:53.011Z,18.20
2023-07-20T22:29:17.465Z,18.30
2023-07-20T22:32:41.514Z,18.20
2023-07-20T22:36:06.116Z,18.20
2023-07-20T22:39:33.970Z,18.20
2023-07-20T22:43:00.232Z,18.30
2023-07-20T22:46:26.972Z,18.20
2023-07-20T22:49:51.509Z,18.20
2023-07-20T22:53:16.858Z,18.10
2023-07-20T22:56:42.250Z,18.10
2023-07-20T23:00:16.174Z,18.00
2023-07-20T23:03:41.053Z,18.00
2023-07-20T23:07:06.014Z,18.00
2023-07-20T23:10:31.135Z,17.90
2023-07-20T23:13:55.560Z,17.90
2023-07-20T23:17:20.855Z,18.00
2023-07-20T23:20:44.672Z,18.00
2023-07-20T23:24:09.805Z,18.10
2023-07-20T23:27:36.012Z,18.00
2023-07-20T23:31:02.093Z,18.10
2023-07-20T23:34:36.132Z,18.00
2023-07-20T23:38:02.066Z,18.00
2023-07-20T23:41:26.934Z,17.80
2023-07-20T23:44:50.570Z,17.90
2023-07-20T23:48:14.576Z,17.90
2023-07-20T23:51:39.968Z,17.90
2023-07-20T23:55:07.163Z,17.90
2023-07-20T23:58:31.828Z,17.90
